sensor_id;sensor_type;location;lat;lon;timestamp;P1;durP1;ratioP1;P2;durP2;ratioP2
69779;SDS011;57052;55.602;38.096;2023-05-07T00:01:53;6.18;;;2.80;;
69779;SDS011;57052;55.602;38.096;2023-05-07T00:04:19;6.13;;;2.88;;
69779;SDS011;57052;55.602;38.096;2023-05-07T00:06:45;6.40;;;2.55;;
69779;SDS011;57052;55.602;38.096;2023-05-07T00:09:11;6.30;;;2.97;;
69779;SDS011;57052;55.602;38.096;2023-05-07T00:11:37;6.10;;;2.75;;
69779;SDS011;57052;55.602;38.096;2023-05-07T00:14:03;5.93;;;2.95;;
69779;SDS011;57052;55.602;38.096;2023-05-07T00:16:28;5.38;;;2.95;;
69779;SDS011;57052;55.602;38.096;2023-05-07T00:18:54;8.63;;;3.67;;
69779;SDS011;57052;55.602;38.096;2023-05-07T00:21:20;7.68;;;3.17;;
69779;SDS011;57052;55.602;38.096;2023-05-07T00:23:46;5.97;;;3.00;;
69779;SDS011;57052;55.602;38.096;2023-05-07T00:26:12;11.15;;;3.58;;
69779;SDS011;57052;55.602;38.096;2023-05-07T00:28:38;6.50;;;3.13;;
69779;SDS011;57052;55.602;38.096;2023-05-07T00:31:04;8.63;;;3.55;;
69779;SDS011;57052;55.602;38.096;2023-05-07T00:33:30;7.05;;;3.28;;
69779;SDS011;57052;55.602;38.096;2023-05-07T00:35:56;7.57;;;3.67;;
69779;SDS011;57052;55.602;38.096;2023-05-07T00:38:22;11.35;;;3.97;;
69779;SDS011;57052;55.602;38.096;2023-05-07T00:40:47;7.35;;;3.45;;
69779;SDS011;57052;55.602;38.096;2023-05-07T00:43:13;7.70;;;3.70;;
69779;SDS011;57052;55.602;38.096;2023-05-07T00:45:38;9.60;;;3.63;;
69779;SDS011;57052;55.602;38.096;2023-05-07T00:48:04;7.70;;;3.25;;
69779;SDS011;57052;55.602;38.096;2023-05-07T00:50:30;9.70;;;3.97;;
69779;SDS011;57052;55.602;38.096;2023-05-07T00:52:57;8.13;;;3.90;;
69779;SDS011;57052;55.602;38.096;2023-05-07T00:55:23;8.63;;;4.28;;
69779;SDS011;57052;55.602;38.096;2023-05-07T00:57:50;8.77;;;3.63;;
69779;SDS011;57052;55.602;38.096;2023-05-07T01:00:16;8.55;;;3.92;;
69779;SDS011;57052;55.602;38.096;2023-05-07T01:02:43;10.05;;;4.35;;
69779;SDS011;57052;55.602;38.096;2023-05-07T01:05:11;9.98;;;3.97;;
69779;SDS011;57052;55.602;38.096;2023-05-07T01:07:40;8.88;;;4.25;;
69779;SDS011;57052;55.602;38.096;2023-05-07T01:10:07;7.70;;;3.97;;
69779;SDS011;57052;55.602;38.096;2023-05-07T01:12:35;9.57;;;4.65;;
69779;SDS011;57052;55.602;38.096;2023-05-07T01:15:03;12.25;;;4.75;;
69779;SDS011;57052;55.602;38.096;2023-05-07T01:17:40;12.90;;;5.22;;
69779;SDS011;57052;55.602;38.096;2023-05-07T01:20:09;10.88;;;4.63;;
69779;SDS011;57052;55.602;38.096;2023-05-07T01:22:36;8.55;;;4.53;;
69779;SDS011;57052;55.602;38.096;2023-05-07T01:25:03;10.02;;;5.30;;
69779;SDS011;57052;55.602;38.096;2023-05-07T01:27:30;10.75;;;5.03;;
69779;SDS011;57052;55.602;38.096;2023-05-07T01:29:56;10.90;;;4.90;;
69779;SDS011;57052;55.602;38.096;2023-05-07T01:32:24;12.82;;;5.32;;
69779;SDS011;57052;55.602;38.096;2023-05-07T01:34:57;10.27;;;4.93;;
69779;SDS011;57052;55.602;38.096;2023-05-07T01:37:25;12.82;;;5.72;;
69779;SDS011;57052;55.602;38.096;2023-05-07T01:39:52;13.57;;;5.55;;
69779;SDS011;57052;55.602;38.096;2023-05-07T01:42:19;14.38;;;6.00;;
69779;SDS011;57052;55.602;38.096;2023-05-07T01:44:45;12.52;;;5.68;;
69779;SDS011;57052;55.602;38.096;2023-05-07T01:47:11;15.88;;;6.35;;
69779;SDS011;57052;55.602;38.096;2023-05-07T01:49:38;15.60;;;5.60;;
69779;SDS011;57052;55.602;38.096;2023-05-07T01:52:05;15.77;;;5.80;;
69779;SDS011;57052;55.602;38.096;2023-05-07T01:54:31;12.10;;;6.50;;
69779;SDS011;57052;55.602;38.096;2023-05-07T01:56:56;12.30;;;5.45;;
69779;SDS011;57052;55.602;38.096;2023-05-07T01:59:22;12.52;;;5.75;;
69779;SDS011;57052;55.602;38.096;2023-05-07T02:01:48;15.38;;;5.38;;
69779;SDS011;57052;55.602;38.096;2023-05-07T02:04:14;11.50;;;5.40;;
69779;SDS011;57052;55.602;38.096;2023-05-07T02:06:39;9.70;;;4.88;;
69779;SDS011;57052;55.602;38.096;2023-05-07T02:09:05;11.45;;;5.65;;
69779;SDS011;57052;55.602;38.096;2023-05-07T02:11:31;10.93;;;5.10;;
69779;SDS011;57052;55.602;38.096;2023-05-07T02:13:57;11.57;;;5.57;;
69779;SDS011;57052;55.602;38.096;2023-05-07T02:16:22;10.77;;;5.05;;
69779;SDS011;57052;55.602;38.096;2023-05-07T02:18:49;9.55;;;4.68;;
69779;SDS011;57052;55.602;38.096;2023-05-07T02:21:15;8.95;;;4.32;;
69779;SDS011;57052;55.602;38.096;2023-05-07T02:23:40;8.02;;;3.85;;
69779;SDS011;57052;55.602;38.096;2023-05-07T02:26:06;6.57;;;3.78;;
69779;SDS011;57052;55.602;38.096;2023-05-07T02:28:32;10.10;;;4.78;;
69779;SDS011;57052;55.602;38.096;2023-05-07T02:30:58;8.85;;;4.00;;
69779;SDS011;57052;55.602;38.096;2023-05-07T02:33:25;10.70;;;4.13;;
69779;SDS011;57052;55.602;38.096;2023-05-07T02:35:51;7.70;;;4.18;;
69779;SDS011;57052;55.602;38.096;2023-05-07T02:38:17;9.35;;;4.68;;
69779;SDS011;57052;55.602;38.096;2023-05-07T02:40:43;9.10;;;3.97;;
69779;SDS011;57052;55.602;38.096;2023-05-07T02:43:09;8.45;;;3.97;;
69779;SDS011;57052;55.602;38.096;2023-05-07T02:45:35;8.35;;;4.25;;
69779;SDS011;57052;55.602;38.096;2023-05-07T02:48:02;9.95;;;4.25;;
69779;SDS011;57052;55.602;38.096;2023-05-07T02:50:29;9.18;;;3.90;;
69779;SDS011;57052;55.602;38.096;2023-05-07T02:52:54;9.07;;;3.50;;
69779;SDS011;57052;55.602;38.096;2023-05-07T02:55:20;9.50;;;3.80;;
69779;SDS011;57052;55.602;38.096;2023-05-07T02:57:46;9.98;;;3.78;;
69779;SDS011;57052;55.602;38.096;2023-05-07T03:00:16;7.28;;;3.45;;
69779;SDS011;57052;55.602;38.096;2023-05-07T03:02:43;7.88;;;3.67;;
69779;SDS011;57052;55.602;38.096;2023-05-07T03:05:09;6.38;;;3.45;;
69779;SDS011;57052;55.602;38.096;2023-05-07T03:07:36;7.65;;;3.30;;
69779;SDS011;57052;55.602;38.096;2023-05-07T03:10:02;6.57;;;3.17;;
69779;SDS011;57052;55.602;38.096;2023-05-07T03:12:29;6.15;;;3.00;;
69779;SDS011;57052;55.602;38.096;2023-05-07T03:14:55;7.70;;;3.20;;
69779;SDS011;57052;55.602;38.096;2023-05-07T03:17:21;7.93;;;3.28;;
69779;SDS011;57052;55.602;38.096;2023-05-07T03:19:47;5.30;;;2.72;;
69779;SDS011;57052;55.602;38.096;2023-05-07T03:22:12;6.78;;;3.40;;
69779;SDS011;57052;55.602;38.096;2023-05-07T03:24:38;6.75;;;3.10;;
69779;SDS011;57052;55.602;38.096;2023-05-07T03:27:04;5.68;;;3.08;;
69779;SDS011;57052;55.602;38.096;2023-05-07T03:29:29;6.30;;;3.08;;
69779;SDS011;57052;55.602;38.096;2023-05-07T03:31:55;5.07;;;2.88;;
69779;SDS011;57052;55.602;38.096;2023-05-07T03:34:21;6.38;;;3.00;;
69779;SDS011;57052;55.602;38.096;2023-05-07T03:36:48;6.63;;;2.83;;
69779;SDS011;57052;55.602;38.096;2023-05-07T03:39:14;9.00;;;2.67;;
69779;SDS011;57052;55.602;38.096;2023-05-07T03:41:39;5.72;;;2.50;;
69779;SDS011;57052;55.602;38.096;2023-05-07T03:44:05;6.45;;;2.67;;
69779;SDS011;57052;55.602;38.096;2023-05-07T03:46:31;7.68;;;2.78;;
69779;SDS011;57052;55.602;38.096;2023-05-07T03:48:58;5.25;;;3.03;;
69779;SDS011;57052;55.602;38.096;2023-05-07T03:51:24;6.85;;;2.67;;
69779;SDS011;57052;55.602;38.096;2023-05-07T03:53:50;5.82;;;2.58;;
69779;SDS011;57052;55.602;38.096;2023-05-07T03:56:18;5.88;;;2.63;;
69779;SDS011;57052;55.602;38.096;2023-05-07T03:58:44;5.47;;;2.53;;
69779;SDS011;57052;55.602;38.096;2023-05-07T04:01:10;7.03;;;2.70;;
69779;SDS011;57052;55.602;38.096;2023-05-07T04:03:36;4.50;;;2.50;;
69779;SDS011;57052;55.602;38.096;2023-05-07T04:06:02;4.90;;;2.65;;
69779;SDS011;57052;55.602;38.096;2023-05-07T04:08:28;5.65;;;2.65;;
69779;SDS011;57052;55.602;38.096;2023-05-07T04:10:57;4.07;;;2.25;;
69779;SDS011;57052;55.602;38.096;2023-05-07T04:13:23;5.70;;;2.60;;
69779;SDS011;57052;55.602;38.096;2023-05-07T04:15:49;5.22;;;2.25;;
69779;SDS011;57052;55.602;38.096;2023-05-07T04:18:15;6.53;;;2.20;;
69779;SDS011;57052;55.602;38.096;2023-05-07T04:20:41;4.25;;;2.20;;
69779;SDS011;57052;55.602;38.096;2023-05-07T04:23:07;4.97;;;2.60;;
69779;SDS011;57052;55.602;38.096;2023-05-07T04:25:33;4.80;;;2.20;;
69779;SDS011;57052;55.602;38.096;2023-05-07T04:27:59;3.25;;;1.83;;
69779;SDS011;57052;55.602;38.096;2023-05-07T04:30:25;4.05;;;2.10;;
69779;SDS011;57052;55.602;38.096;2023-05-07T04:32:51;4.13;;;1.85;;
69779;SDS011;57052;55.602;38.096;2023-05-07T04:35:17;4.13;;;1.70;;
69779;SDS011;57052;55.602;38.096;2023-05-07T04:37:43;5.05;;;1.60;;
69779;SDS011;57052;55.602;38.096;2023-05-07T04:40:09;3.88;;;2.08;;
69779;SDS011;57052;55.602;38.096;2023-05-07T04:42:35;6.22;;;1.90;;
69779;SDS011;57052;55.602;38.096;2023-05-07T04:45:01;5.85;;;1.77;;
69779;SDS011;57052;55.602;38.096;2023-05-07T04:47:28;3.53;;;1.75;;
69779;SDS011;57052;55.602;38.096;2023-05-07T04:49:53;5.45;;;1.95;;
69779;SDS011;57052;55.602;38.096;2023-05-07T04:52:19;3.40;;;1.70;;
69779;SDS011;57052;55.602;38.096;2023-05-07T04:54:45;2.60;;;1.52;;
69779;SDS011;57052;55.602;38.096;2023-05-07T04:57:11;4.68;;;1.52;;
69779;SDS011;57052;55.602;38.096;2023-05-07T04:59:36;3.42;;;1.63;;
69779;SDS011;57052;55.602;38.096;2023-05-07T05:02:02;4.18;;;1.60;;
69779;SDS011;57052;55.602;38.096;2023-05-07T05:04:29;3.58;;;1.88;;
69779;SDS011;57052;55.602;38.096;2023-05-07T05:06:55;3.28;;;1.27;;
69779;SDS011;57052;55.602;38.096;2023-05-07T05:09:21;2.85;;;1.35;;
69779;SDS011;57052;55.602;38.096;2023-05-07T05:11:47;5.25;;;1.67;;
69779;SDS011;57052;55.602;38.096;2023-05-07T05:14:12;4.22;;;1.70;;
69779;SDS011;57052;55.602;38.096;2023-05-07T05:16:38;3.20;;;1.20;;
69779;SDS011;57052;55.602;38.096;2023-05-07T05:19:04;3.45;;;1.40;;
69779;SDS011;57052;55.602;38.096;2023-05-07T05:21:30;3.28;;;1.10;;
69779;SDS011;57052;55.602;38.096;2023-05-07T05:23:56;2.55;;;1.15;;
69779;SDS011;57052;55.602;38.096;2023-05-07T05:26:22;2.67;;;1.25;;
69779;SDS011;57052;55.602;38.096;2023-05-07T05:28:47;2.15;;;1.10;;
69779;SDS011;57052;55.602;38.096;2023-05-07T05:31:13;2.50;;;1.20;;
69779;SDS011;57052;55.602;38.096;2023-05-07T05:33:39;3.10;;;1.40;;
69779;SDS011;57052;55.602;38.096;2023-05-07T05:36:05;3.72;;;1.20;;
69779;SDS011;57052;55.602;38.096;2023-05-07T05:38:31;4.65;;;1.45;;
69779;SDS011;57052;55.602;38.096;2023-05-07T05:40:57;2.28;;;1.30;;
69779;SDS011;57052;55.602;38.096;2023-05-07T05:43:22;3.30;;;1.50;;
69779;SDS011;57052;55.602;38.096;2023-05-07T05:45:48;2.58;;;1.40;;
69779;SDS011;57052;55.602;38.096;2023-05-07T05:48:14;3.08;;;1.30;;
69779;SDS011;57052;55.602;38.096;2023-05-07T05:50:41;3.13;;;1.55;;
69779;SDS011;57052;55.602;38.096;2023-05-07T05:53:07;3.42;;;1.30;;
69779;SDS011;57052;55.602;38.096;2023-05-07T05:55:33;3.85;;;1.50;;
69779;SDS011;57052;55.602;38.096;2023-05-07T05:57:59;2.53;;;1.50;;
69779;SDS011;57052;55.602;38.096;2023-05-07T06:00:26;3.35;;;1.45;;
69779;SDS011;57052;55.602;38.096;2023-05-07T06:02:52;3.30;;;1.35;;
69779;SDS011;57052;55.602;38.096;2023-05-07T06:05:18;2.28;;;1.38;;
69779;SDS011;57052;55.602;38.096;2023-05-07T06:07:43;4.05;;;1.92;;
69779;SDS011;57052;55.602;38.096;2023-05-07T06:10:09;4.60;;;1.50;;
69779;SDS011;57052;55.602;38.096;2023-05-07T06:12:35;3.03;;;1.40;;
69779;SDS011;57052;55.602;38.096;2023-05-07T06:15:00;2.20;;;1.30;;
69779;SDS011;57052;55.602;38.096;2023-05-07T06:17:27;3.20;;;1.60;;
69779;SDS011;57052;55.602;38.096;2023-05-07T06:19:53;2.72;;;1.42;;
69779;SDS011;57052;55.602;38.096;2023-05-07T06:22:19;3.90;;;1.70;;
69779;SDS011;57052;55.602;38.096;2023-05-07T06:24:45;2.13;;;1.15;;
69779;SDS011;57052;55.602;38.096;2023-05-07T06:27:11;2.50;;;1.40;;
69779;SDS011;57052;55.602;38.096;2023-05-07T06:29:37;3.78;;;1.60;;
69779;SDS011;57052;55.602;38.096;2023-05-07T06:32:06;3.38;;;1.40;;
69779;SDS011;57052;55.602;38.096;2023-05-07T06:34:38;3.08;;;1.52;;
69779;SDS011;57052;55.602;38.096;2023-05-07T06:37:05;2.08;;;1.30;;
69779;SDS011;57052;55.602;38.096;2023-05-07T06:39:31;4.82;;;1.85;;
69779;SDS011;57052;55.602;38.096;2023-05-07T06:41:58;5.45;;;1.60;;
69779;SDS011;57052;55.602;38.096;2023-05-07T06:44:23;4.63;;;1.63;;
69779;SDS011;57052;55.602;38.096;2023-05-07T06:46:49;2.92;;;1.52;;
69779;SDS011;57052;55.602;38.096;2023-05-07T06:49:15;3.15;;;1.60;;
69779;SDS011;57052;55.602;38.096;2023-05-07T06:51:41;3.20;;;1.48;;
69779;SDS011;57052;55.602;38.096;2023-05-07T06:54:06;2.85;;;1.55;;
69779;SDS011;57052;55.602;38.096;2023-05-07T06:56:32;2.08;;;1.30;;
69779;SDS011;57052;55.602;38.096;2023-05-07T06:59:00;2.85;;;1.35;;
69779;SDS011;57052;55.602;38.096;2023-05-07T07:01:26;2.33;;;1.50;;
69779;SDS011;57052;55.602;38.096;2023-05-07T07:03:52;2.60;;;1.50;;
69779;SDS011;57052;55.602;38.096;2023-05-07T07:06:17;2.80;;;1.50;;
69779;SDS011;57052;55.602;38.096;2023-05-07T07:08:43;2.75;;;1.33;;
69779;SDS011;57052;55.602;38.096;2023-05-07T07:11:09;4.68;;;1.40;;
69779;SDS011;57052;55.602;38.096;2023-05-07T07:13:35;4.95;;;1.40;;
69779;SDS011;57052;55.602;38.096;2023-05-07T07:16:01;3.85;;;1.50;;
69779;SDS011;57052;55.602;38.096;2023-05-07T07:18:27;4.22;;;1.40;;
69779;SDS011;57052;55.602;38.096;2023-05-07T07:20:52;2.72;;;1.52;;
69779;SDS011;57052;55.602;38.096;2023-05-07T07:23:18;3.47;;;1.70;;
69779;SDS011;57052;55.602;38.096;2023-05-07T07:25:44;4.65;;;1.92;;
69779;SDS011;57052;55.602;38.096;2023-05-07T07:28:10;2.42;;;1.30;;
69779;SDS011;57052;55.602;38.096;2023-05-07T07:30:36;4.78;;;1.40;;
69779;SDS011;57052;55.602;38.096;2023-05-07T07:33:02;1.85;;;1.15;;
69779;SDS011;57052;55.602;38.096;2023-05-07T07:35:29;1.73;;;1.13;;
69779;SDS011;57052;55.602;38.096;2023-05-07T07:37:55;1.90;;;1.15;;
69779;SDS011;57052;55.602;38.096;2023-05-07T07:40:21;1.88;;;1.17;;
69779;SDS011;57052;55.602;38.096;2023-05-07T07:42:47;3.63;;;1.30;;
69779;SDS011;57052;55.602;38.096;2023-05-07T07:45:13;3.53;;;1.35;;
69779;SDS011;57052;55.602;38.096;2023-05-07T07:47:41;2.67;;;1.75;;
69779;SDS011;57052;55.602;38.096;2023-05-07T07:50:07;3.10;;;1.23;;
69779;SDS011;57052;55.602;38.096;2023-05-07T07:52:33;1.95;;;1.30;;
69779;SDS011;57052;55.602;38.096;2023-05-07T07:55:00;2.10;;;1.30;;
69779;SDS011;57052;55.602;38.096;2023-05-07T07:57:26;2.17;;;1.00;;
69779;SDS011;57052;55.602;38.096;2023-05-07T07:59:52;1.85;;;1.10;;
69779;SDS011;57052;55.602;38.096;2023-05-07T08:02:18;1.88;;;1.20;;
69779;SDS011;57052;55.602;38.096;2023-05-07T08:04:44;5.53;;;1.42;;
69779;SDS011;57052;55.602;38.096;2023-05-07T08:07:10;2.13;;;1.08;;
69779;SDS011;57052;55.602;38.096;2023-05-07T08:09:36;2.95;;;1.35;;
69779;SDS011;57052;55.602;38.096;2023-05-07T08:12:03;1.20;;;1.00;;
69779;SDS011;57052;55.602;38.096;2023-05-07T08:14:29;3.17;;;1.20;;
69779;SDS011;57052;55.602;38.096;2023-05-07T08:16:55;2.22;;;1.13;;
69779;SDS011;57052;55.602;38.096;2023-05-07T08:19:20;4.30;;;1.20;;
69779;SDS011;57052;55.602;38.096;2023-05-07T08:21:47;1.90;;;1.38;;
69779;SDS011;57052;55.602;38.096;2023-05-07T08:24:16;4.40;;;1.35;;
69779;SDS011;57052;55.602;38.096;2023-05-07T08:26:43;3.45;;;1.20;;
69779;SDS011;57052;55.602;38.096;2023-05-07T08:29:09;2.00;;;1.13;;
69779;SDS011;57052;55.602;38.096;2023-05-07T08:31:35;2.83;;;1.02;;
69779;SDS011;57052;55.602;38.096;2023-05-07T08:34:00;2.22;;;1.38;;
69779;SDS011;57052;55.602;38.096;2023-05-07T08:36:26;4.72;;;1.23;;
69779;SDS011;57052;55.602;38.096;2023-05-07T08:38:52;1.92;;;1.10;;
69779;SDS011;57052;55.602;38.096;2023-05-07T08:41:18;6.10;;;1.10;;
69779;SDS011;57052;55.602;38.096;2023-05-07T08:43:47;4.13;;;1.25;;
69779;SDS011;57052;55.602;38.096;2023-05-07T08:46:18;4.32;;;1.48;;
69779;SDS011;57052;55.602;38.096;2023-05-07T08:48:47;2.72;;;1.30;;
69779;SDS011;57052;55.602;38.096;2023-05-07T08:51:15;1.48;;;1.10;;
69779;SDS011;57052;55.602;38.096;2023-05-07T08:53:42;3.33;;;1.40;;
69779;SDS011;57052;55.602;38.096;2023-05-07T08:56:08;2.03;;;1.30;;
69779;SDS011;57052;55.602;38.096;2023-05-07T08:58:35;2.25;;;1.20;;
69779;SDS011;57052;55.602;38.096;2023-05-07T09:01:03;2.67;;;1.20;;
69779;SDS011;57052;55.602;38.096;2023-05-07T09:03:32;2.42;;;1.15;;
69779;SDS011;57052;55.602;38.096;2023-05-07T09:05:58;1.50;;;1.10;;
69779;SDS011;57052;55.602;38.096;2023-05-07T09:08:24;2.88;;;1.20;;
69779;SDS011;57052;55.602;38.096;2023-05-07T09:10:51;3.33;;;1.27;;
69779;SDS011;57052;55.602;38.096;2023-05-07T09:13:17;1.80;;;1.17;;
69779;SDS011;57052;55.602;38.096;2023-05-07T09:15:43;2.63;;;1.20;;
69779;SDS011;57052;55.602;38.096;2023-05-07T09:18:09;2.20;;;1.20;;
69779;SDS011;57052;55.602;38.096;2023-05-07T09:20:38;4.30;;;1.52;;
69779;SDS011;57052;55.602;38.096;2023-05-07T09:23:05;3.15;;;1.73;;
69779;SDS011;57052;55.602;38.096;2023-05-07T09:25:32;3.38;;;1.70;;
69779;SDS011;57052;55.602;38.096;2023-05-07T09:28:03;3.92;;;1.63;;
69779;SDS011;57052;55.602;38.096;2023-05-07T09:30:30;1.92;;;0.90;;
69779;SDS011;57052;55.602;38.096;2023-05-07T09:33:00;1.58;;;1.13;;
69779;SDS011;57052;55.602;38.096;2023-05-07T09:35:27;4.07;;;1.40;;
69779;SDS011;57052;55.602;38.096;2023-05-07T09:37:53;4.47;;;1.55;;
69779;SDS011;57052;55.602;38.096;2023-05-07T09:40:21;5.38;;;1.40;;
69779;SDS011;57052;55.602;38.096;2023-05-07T09:42:48;2.65;;;1.20;;
69779;SDS011;57052;55.602;38.096;2023-05-07T09:45:15;2.08;;;1.20;;
69779;SDS011;57052;55.602;38.096;2023-05-07T09:47:46;2.17;;;1.20;;
69779;SDS011;57052;55.602;38.096;2023-05-07T09:50:15;4.28;;;1.50;;
69779;SDS011;57052;55.602;38.096;2023-05-07T09:52:42;2.75;;;1.30;;
69779;SDS011;57052;55.602;38.096;2023-05-07T09:55:09;5.45;;;1.40;;
69779;SDS011;57052;55.602;38.096;2023-05-07T09:57:36;3.05;;;1.40;;
69779;SDS011;57052;55.602;38.096;2023-05-07T10:00:04;3.35;;;1.58;;
69779;SDS011;57052;55.602;38.096;2023-05-07T10:02:31;2.88;;;1.30;;
69779;SDS011;57052;55.602;38.096;2023-05-07T10:04:59;2.78;;;1.40;;
69779;SDS011;57052;55.602;38.096;2023-05-07T10:07:29;2.55;;;1.40;;
69779;SDS011;57052;55.602;38.096;2023-05-07T10:09:55;3.45;;;1.63;;
69779;SDS011;57052;55.602;38.096;2023-05-07T10:12:21;5.10;;;1.60;;
69779;SDS011;57052;55.602;38.096;2023-05-07T10:14:47;3.55;;;1.30;;
69779;SDS011;57052;55.602;38.096;2023-05-07T10:17:13;2.45;;;1.30;;
69779;SDS011;57052;55.602;38.096;2023-05-07T10:19:43;2.25;;;1.38;;
69779;SDS011;57052;55.602;38.096;2023-05-07T10:22:10;4.20;;;1.50;;
69779;SDS011;57052;55.602;38.096;2023-05-07T10:24:36;2.72;;;1.30;;
69779;SDS011;57052;55.602;38.096;2023-05-07T10:27:10;2.60;;;1.50;;
69779;SDS011;57052;55.602;38.096;2023-05-07T10:35:23;3.20;;;1.60;;
69779;SDS011;57052;55.602;38.096;2023-05-07T10:37:51;3.35;;;1.40;;
69779;SDS011;57052;55.602;38.096;2023-05-07T10:40:18;1.88;;;1.15;;
69779;SDS011;57052;55.602;38.096;2023-05-07T10:42:55;2.15;;;1.40;;
69779;SDS011;57052;55.602;38.096;2023-05-07T10:45:26;1.77;;;1.30;;
69779;SDS011;57052;55.602;38.096;2023-05-07T10:48:11;2.28;;;1.35;;
69779;SDS011;57052;55.602;38.096;2023-05-07T10:50:37;2.70;;;1.17;;
69779;SDS011;57052;55.602;38.096;2023-05-07T10:55:43;2.75;;;1.20;;
69779;SDS011;57052;55.602;38.096;2023-05-07T10:58:25;2.33;;;1.35;;
69779;SDS011;57052;55.602;38.096;2023-05-07T11:00:58;3.45;;;1.38;;
69779;SDS011;57052;55.602;38.096;2023-05-07T11:03:25;1.77;;;1.25;;
69779;SDS011;57052;55.602;38.096;2023-05-07T11:11:17;11.38;;;1.85;;
69779;SDS011;57052;55.602;38.096;2023-05-07T11:13:45;12.43;;;1.70;;
69779;SDS011;57052;55.602;38.096;2023-05-07T11:16:18;13.55;;;1.98;;
69779;SDS011;57052;55.602;38.096;2023-05-07T11:18:53;2.00;;;1.20;;
69779;SDS011;57052;55.602;38.096;2023-05-07T11:21:36;2.80;;;1.40;;
69779;SDS011;57052;55.602;38.096;2023-05-07T11:24:03;3.45;;;2.00;;
69779;SDS011;57052;55.602;38.096;2023-05-07T11:26:31;5.28;;;1.50;;
69779;SDS011;57052;55.602;38.096;2023-05-07T11:29:17;6.35;;;1.77;;
69779;SDS011;57052;55.602;38.096;2023-05-07T11:31:48;3.15;;;1.50;;
69779;SDS011;57052;55.602;38.096;2023-05-07T11:34:19;2.88;;;1.40;;
69779;SDS011;57052;55.602;38.096;2023-05-07T11:36:50;2.58;;;1.33;;
69779;SDS011;57052;55.602;38.096;2023-05-07T11:39:23;2.60;;;1.33;;
69779;SDS011;57052;55.602;38.096;2023-05-07T11:41:50;2.50;;;1.40;;
69779;SDS011;57052;55.602;38.096;2023-05-07T11:44:16;4.20;;;1.70;;
69779;SDS011;57052;55.602;38.096;2023-05-07T11:46:44;4.95;;;1.63;;
69779;SDS011;57052;55.602;38.096;2023-05-07T11:49:10;2.40;;;1.30;;
69779;SDS011;57052;55.602;38.096;2023-05-07T11:51:36;3.08;;;1.50;;
69779;SDS011;57052;55.602;38.096;2023-05-07T11:54:04;3.72;;;1.50;;
69779;SDS011;57052;55.602;38.096;2023-05-07T11:56:34;3.42;;;1.83;;
69779;SDS011;57052;55.602;38.096;2023-05-07T11:59:00;3.17;;;1.45;;
69779;SDS011;57052;55.602;38.096;2023-05-07T12:01:26;2.95;;;1.63;;
69779;SDS011;57052;55.602;38.096;2023-05-07T12:03:52;3.90;;;1.80;;
69779;SDS011;57052;55.602;38.096;2023-05-07T12:06:18;2.65;;;1.70;;
69779;SDS011;57052;55.602;38.096;2023-05-07T12:08:45;3.13;;;1.65;;
69779;SDS011;57052;55.602;38.096;2023-05-07T12:11:29;4.53;;;1.70;;
69779;SDS011;57052;55.602;38.096;2023-05-07T12:13:55;3.45;;;1.80;;
69779;SDS011;57052;55.602;38.096;2023-05-07T12:16:21;6.45;;;2.10;;
69779;SDS011;57052;55.602;38.096;2023-05-07T12:18:47;2.10;;;1.50;;
69779;SDS011;57052;55.602;38.096;2023-05-07T12:21:13;4.68;;;1.70;;
69779;SDS011;57052;55.602;38.096;2023-05-07T12:23:40;5.03;;;1.50;;
69779;SDS011;57052;55.602;38.096;2023-05-07T12:26:05;4.15;;;1.70;;
69779;SDS011;57052;55.602;38.096;2023-05-07T12:28:32;3.38;;;1.70;;
69779;SDS011;57052;55.602;38.096;2023-05-07T12:31:02;3.30;;;1.60;;
69779;SDS011;57052;55.602;38.096;2023-05-07T12:33:29;4.47;;;1.92;;
69779;SDS011;57052;55.602;38.096;2023-05-07T12:35:56;2.83;;;1.77;;
69779;SDS011;57052;55.602;38.096;2023-05-07T12:38:22;2.58;;;1.55;;
69779;SDS011;57052;55.602;38.096;2023-05-07T12:40:48;4.07;;;1.55;;
69779;SDS011;57052;55.602;38.096;2023-05-07T12:43:19;4.82;;;1.65;;
69779;SDS011;57052;55.602;38.096;2023-05-07T12:45:46;4.10;;;1.80;;
69779;SDS011;57052;55.602;38.096;2023-05-07T12:48:13;3.15;;;1.88;;
69779;SDS011;57052;55.602;38.096;2023-05-07T12:50:39;5.22;;;2.03;;
69779;SDS011;57052;55.602;38.096;2023-05-07T12:53:05;4.47;;;2.35;;
69779;SDS011;57052;55.602;38.096;2023-05-07T12:58:18;4.53;;;2.10;;
69779;SDS011;57052;55.602;38.096;2023-05-07T13:00:47;5.13;;;2.05;;
69779;SDS011;57052;55.602;38.096;2023-05-07T13:03:20;3.90;;;2.00;;
69779;SDS011;57052;55.602;38.096;2023-05-07T13:06:08;3.05;;;1.60;;
69779;SDS011;57052;55.602;38.096;2023-05-07T13:08:35;4.28;;;2.17;;
69779;SDS011;57052;55.602;38.096;2023-05-07T13:11:06;8.73;;;1.90;;
69779;SDS011;57052;55.602;38.096;2023-05-07T13:13:36;4.20;;;1.90;;
69779;SDS011;57052;55.602;38.096;2023-05-07T13:16:04;5.43;;;1.85;;
69779;SDS011;57052;55.602;38.096;2023-05-07T13:18:31;4.57;;;1.90;;
69779;SDS011;57052;55.602;38.096;2023-05-07T13:20:58;4.50;;;1.88;;
69779;SDS011;57052;55.602;38.096;2023-05-07T13:23:25;3.28;;;1.50;;
69779;SDS011;57052;55.602;38.096;2023-05-07T13:25:51;2.95;;;1.65;;
69779;SDS011;57052;55.602;38.096;2023-05-07T13:28:19;4.05;;;1.60;;
69779;SDS011;57052;55.602;38.096;2023-05-07T13:30:45;5.30;;;1.83;;
69779;SDS011;57052;55.602;38.096;2023-05-07T13:33:12;3.78;;;2.20;;
69779;SDS011;57052;55.602;38.096;2023-05-07T13:35:38;3.97;;;2.00;;
69779;SDS011;57052;55.602;38.096;2023-05-07T13:38:04;9.23;;;2.22;;
69779;SDS011;57052;55.602;38.096;2023-05-07T13:40:30;3.22;;;1.80;;
69779;SDS011;57052;55.602;38.096;2023-05-07T13:42:59;4.45;;;1.63;;
69779;SDS011;57052;55.602;38.096;2023-05-07T13:45:27;3.17;;;1.60;;
69779;SDS011;57052;55.602;38.096;2023-05-07T13:47:55;2.88;;;1.60;;
69779;SDS011;57052;55.602;38.096;2023-05-07T13:50:21;5.72;;;1.88;;
69779;SDS011;57052;55.602;38.096;2023-05-07T13:52:47;6.82;;;2.15;;
69779;SDS011;57052;55.602;38.096;2023-05-07T13:55:19;3.60;;;1.55;;
69779;SDS011;57052;55.602;38.096;2023-05-07T13:57:46;2.90;;;1.40;;
69779;SDS011;57052;55.602;38.096;2023-05-07T14:00:12;3.78;;;1.35;;
69779;SDS011;57052;55.602;38.096;2023-05-07T14:02:39;2.90;;;1.40;;
69779;SDS011;57052;55.602;38.096;2023-05-07T14:05:05;3.30;;;1.38;;
69779;SDS011;57052;55.602;38.096;2023-05-07T14:07:31;6.35;;;1.80;;
69779;SDS011;57052;55.602;38.096;2023-05-07T14:09:57;6.20;;;2.28;;
69779;SDS011;57052;55.602;38.096;2023-05-07T14:12:23;2.80;;;1.58;;
69779;SDS011;57052;55.602;38.096;2023-05-07T14:14:49;3.00;;;1.60;;
69779;SDS011;57052;55.602;38.096;2023-05-07T14:17:18;3.05;;;1.70;;
69779;SDS011;57052;55.602;38.096;2023-05-07T14:19:45;3.75;;;1.90;;
69779;SDS011;57052;55.602;38.096;2023-05-07T14:22:13;3.63;;;1.90;;
69779;SDS011;57052;55.602;38.096;2023-05-07T14:24:40;5.07;;;2.42;;
69779;SDS011;57052;55.602;38.096;2023-05-07T14:27:05;8.57;;;3.22;;
69779;SDS011;57052;55.602;38.096;2023-05-07T14:29:31;6.45;;;2.50;;
69779;SDS011;57052;55.602;38.096;2023-05-07T14:31:57;4.55;;;2.20;;
69779;SDS011;57052;55.602;38.096;2023-05-07T14:34:23;5.35;;;2.03;;
69779;SDS011;57052;55.602;38.096;2023-05-07T14:36:49;4.85;;;2.20;;
69779;SDS011;57052;55.602;38.096;2023-05-07T14:39:14;5.63;;;2.38;;
69779;SDS011;57052;55.602;38.096;2023-05-07T14:41:40;4.38;;;2.10;;
69779;SDS011;57052;55.602;38.096;2023-05-07T14:44:06;5.15;;;2.60;;
69779;SDS011;57052;55.602;38.096;2023-05-07T14:46:31;5.65;;;2.25;;
69779;SDS011;57052;55.602;38.096;2023-05-07T14:48:57;6.68;;;2.28;;